createdAt,value
2023-05-03T00:02:24.845Z,100963.22
2023-05-03T00:04:55.185Z,100973.47
2023-05-03T00:07:22.984Z,100970.28
2023-05-03T00:09:50.300Z,100969.41
2023-05-03T00:12:17.582Z,100967.06
2023-05-03T00:14:46.239Z,100965.53
2023-05-03T00:17:13.592Z,100973.50
2023-05-03T00:19:40.663Z,100970.63
2023-05-03T00:22:07.801Z,100972.50
2023-05-03T00:24:35.591Z,100972.00
2023-05-03T00:27:05.215Z,100975.63
2023-05-03T00:29:32.446Z,100968.31
2023-05-03T00:32:00.475Z,100962.03
2023-05-03T00:34:27.684Z,100958.44
2023-05-03T00:36:54.732Z,100962.16
2023-05-03T00:39:21.774Z,100953.53
2023-05-03T00:41:48.777Z,100952.66
2023-05-03T00:44:16.271Z,100953.22
2023-05-03T00:46:43.364Z,100965.88
2023-05-03T00:49:10.508Z,100963.44
2023-05-03T00:51:37.695Z,100966.19
2023-05-03T00:54:04.944Z,100972.50
2023-05-03T00:56:44.406Z,100977.91
2023-05-03T00:59:19.158Z,100983.63
2023-05-03T01:01:51.669Z,100987.28
2023-05-03T01:04:20.176Z,100993.41
2023-05-03T01:07:10.828Z,100991.56
2023-05-03T01:10:06.214Z,100993.41
2023-05-03T01:12:57.853Z,100997.69
2023-05-03T01:16:01.022Z,101002.09
2023-05-03T01:18:34.593Z,101000.25
2023-05-03T01:21:05.352Z,101004.03
2023-05-03T01:24:08.069Z,101000.69
2023-05-03T01:26:35.166Z,101003.47
2023-05-03T01:29:02.554Z,101005.47
2023-05-03T01:31:39.277Z,101005.59
2023-05-03T01:34:51.023Z,101007.22
2023-05-03T01:37:18.877Z,101017.03
2023-05-03T01:40:02.311Z,101019.25
2023-05-03T01:42:31.093Z,101021.47
2023-05-03T01:45:00.416Z,101035.94
2023-05-03T01:47:27.982Z,101028.66
2023-05-03T01:49:55.225Z,101019.25
2023-05-03T01:52:24.237Z,101030.63
2023-05-03T01:54:51.298Z,101026.44
2023-05-03T01:57:18.334Z,101027.25
2023-05-03T01:59:45.427Z,101021.03
2023-05-03T02:02:12.538Z,101023.03
2023-05-03T02:04:39.633Z,101020.44
2023-05-03T02:07:06.739Z,101022.16
2023-05-03T02:09:34.305Z,101021.56
2023-05-03T02:12:01.336Z,101013.56
2023-05-03T02:14:28.515Z,101020.06
2023-05-03T02:16:56.051Z,101022.59
2023-05-03T02:19:23.183Z,101032.13
2023-05-03T02:21:50.473Z,101029.13
2023-05-03T02:24:17.754Z,101024.97
2023-05-03T02:26:44.875Z,101034.28
2023-05-03T02:29:11.954Z,101048.19
2023-05-03T02:31:39.069Z,101049.66
2023-05-03T02:34:06.178Z,101050.34
2023-05-03T02:36:33.248Z,101041.38
2023-05-03T02:39:00.378Z,101042.34
2023-05-03T02:41:27.591Z,101043.53
2023-05-03T02:43:54.634Z,101047.06
2023-05-03T02:46:21.767Z,101051.19
2023-05-03T02:48:48.880Z,101044.44
2023-05-03T02:51:16.151Z,101041.59
2023-05-03T02:53:43.170Z,101040.50
2023-05-03T02:56:10.162Z,101039.63
2023-05-03T02:58:37.425Z,101035.75
2023-05-03T03:01:04.725Z,101037.88
2023-05-03T03:03:32.037Z,101039.28
2023-05-03T03:05:59.314Z,101048.44
2023-05-03T03:08:26.410Z,101051.53
2023-05-03T03:10:53.445Z,101047.81
2023-05-03T03:13:20.641Z,101043.25
2023-05-03T03:15:47.741Z,101051.84
2023-05-03T03:18:14.896Z,101039.72
2023-05-03T03:20:43.512Z,101052.41
2023-05-03T03:23:11.431Z,101059.69
2023-05-03T03:25:38.499Z,101060.47
2023-05-03T03:28:05.731Z,101057.88
2023-05-03T03:30:32.769Z,101066.16
2023-05-03T03:32:59.969Z,101072.97
2023-05-03T03:35:27.684Z,101062.97
2023-05-03T03:37:54.679Z,101067.25
2023-05-03T03:40:21.767Z,101070.19
2023-05-03T03:42:48.783Z,101073.09
2023-05-03T03:45:15.785Z,101082.88
2023-05-03T03:47:42.932Z,101085.75
2023-05-03T03:50:10.668Z,101069.78
2023-05-03T03:52:37.865Z,101082.63
2023-05-03T03:55:05.513Z,101091.84
2023-05-03T03:57:32.571Z,101096.09
2023-05-03T03:59:59.827Z,101090.50
2023-05-03T04:02:27.820Z,101091.53
2023-05-03T04:04:55.043Z,101104.06
2023-05-03T04:07:22.154Z,101101.06
2023-05-03T04:09:49.295Z,101113.16
2023-05-03T04:12:16.364Z,101117.56
2023-05-03T04:14:43.499Z,101124.44
2023-05-03T04:17:10.787Z,101114.34
2023-05-03T04:19:38.720Z,101115.03
2023-05-03T04:22:06.031Z,101113.22
2023-05-03T04:24:33.143Z,101109.88
2023-05-03T04:27:04.341Z,101109.78
2023-05-03T04:29:31.659Z,101114.59
2023-05-03T04:31:58.795Z,101120.16
2023-05-03T04:34:26.010Z,101117.00
2023-05-03T04:36:53.580Z,101111.19
2023-05-03T04:39:22.162Z,101118.50
2023-05-03T04:41:49.217Z,101116.13
2023-05-03T04:44:16.473Z,101127.63
2023-05-03T04:46:43.639Z,101125.53
2023-05-03T04:49:10.927Z,101132.31
2023-05-03T04:51:37.961Z,101138.03
2023-05-03T04:54:05.163Z,101133.81
2023-05-03T04:56:35.693Z,101138.19
2023-05-03T04:59:02.838Z,101134.66
2023-05-03T05:01:29.954Z,101147.72
2023-05-03T05:03:57.171Z,101142.63
2023-05-03T05:06:24.493Z,101135.34
2023-05-03T05:08:51.482Z,101138.09
2023-05-03T05:11:19.000Z,101141.34
2023-05-03T05:13:46.124Z,101134.50
2023-05-03T05:16:13.255Z,101127.31
2023-05-03T05:18:40.398Z,101142.03
2023-05-03T05:21:07.490Z,101141.28
2023-05-03T05:23:34.551Z,101145.66
2023-05-03T05:26:01.741Z,101149.97
2023-05-03T05:28:29.242Z,101152.88
2023-05-03T05:30:56.411Z,101142.06
2023-05-03T05:33:24.518Z,101155.81
2023-05-03T05:35:51.624Z,101148.47
2023-05-03T05:38:18.793Z,101147.56
2023-05-03T05:40:45.835Z,101144.31
2023-05-03T05:43:12.952Z,101148.16
2023-05-03T05:45:40.273Z,101154.53
2023-05-03T05:48:08.331Z,101157.06
2023-05-03T05:50:36.646Z,101157.03
2023-05-03T05:53:03.702Z,101158.88
2023-05-03T05:55:30.977Z,101166.91
2023-05-03T05:57:58.069Z,101166.34
2023-05-03T06:00:25.333Z,101170.91
2023-05-03T06:02:52.689Z,101176.31
2023-05-03T06:05:21.367Z,101171.34
2023-05-03T06:07:49.619Z,101172.84
2023-05-03T06:10:16.818Z,101172.50
2023-05-03T06:12:44.031Z,101174.75
2023-05-03T06:15:11.337Z,101173.56
2023-05-03T06:17:38.440Z,101178.56
2023-05-03T06:20:06.905Z,101179.50
2023-05-03T06:22:34.185Z,101186.81
2023-05-03T06:25:01.313Z,101187.22
2023-05-03T06:27:28.357Z,101186.13
2023-05-03T06:29:55.480Z,101195.06
2023-05-03T06:32:23.498Z,101190.56
2023-05-03T06:34:50.975Z,101188.97
2023-05-03T06:37:17.980Z,101192.03
2023-05-03T06:39:45.042Z,101195.59
2023-05-03T06:42:12.197Z,101189.19
2023-05-03T06:44:39.229Z,101182.69
2023-05-03T06:47:06.452Z,101198.56
2023-05-03T06:49:33.848Z,101192.41
2023-05-03T06:52:00.927Z,101199.88
2023-05-03T06:54:28.013Z,101200.34
2023-05-03T06:56:55.073Z,101205.81
2023-05-03T06:59:22.114Z,101199.13
2023-05-03T07:01:50.848Z,101211.22
2023-05-03T07:04:18.005Z,101205.78
2023-05-03T07:06:55.841Z,101199.81
2023-05-03T07:09:35.482Z,101209.94
2023-05-03T07:12:09.524Z,101207.53
2023-05-03T07:14:36.593Z,101193.03
2023-05-03T07:17:03.738Z,101207.63
2023-05-03T07:19:31.077Z,101209.00
2023-05-03T07:21:58.218Z,101207.78
2023-05-03T07:24:26.200Z,101201.03
2023-05-03T07:26:54.079Z,101194.06
2023-05-03T07:29:21.543Z,101197.31
2023-05-03T07:31:49.937Z,101189.59
2023-05-03T07:34:18.574Z,101201.31
2023-05-03T07:36:45.666Z,101207.81
2023-05-03T07:39:12.687Z,101205.03
2023-05-03T07:41:39.853Z,101208.63
2023-05-03T07:44:07.852Z,101212.69
2023-05-03T07:46:35.524Z,101219.13
2023-05-03T07:49:05.050Z,101209.56
2023-05-03T07:51:39.396Z,101213.81
2023-05-03T07:54:06.888Z,101220.47
2023-05-03T07:56:34.128Z,101214.38
2023-05-03T07:59:09.156Z,101203.16
2023-05-03T08:01:38.270Z,101205.00
2023-05-03T08:04:06.056Z,101217.88
2023-05-03T08:06:35.722Z,101215.69
2023-05-03T08:09:04.689Z,101212.59
2023-05-03T08:11:32.250Z,101213.22
2023-05-03T08:13:59.337Z,101217.41
2023-05-03T08:16:26.537Z,101207.38
2023-05-03T08:18:53.652Z,101210.53
2023-05-03T08:21:22.154Z,101212.66
2023-05-03T08:23:49.177Z,101217.06
2023-05-03T08:26:16.303Z,101207.97
2023-05-03T08:28:43.345Z,101214.53
2023-05-03T08:31:10.504Z,101216.00
2023-05-03T08:33:37.899Z,101220.41
2023-05-03T08:36:05.736Z,101215.53
2023-05-03T08:38:34.440Z,101216.63
2023-05-03T08:41:14.122Z,101218.25
2023-05-03T08:43:46.288Z,101213.03
2023-05-03T08:46:14.073Z,101219.69
2023-05-03T08:48:41.566Z,101214.50
2023-05-03T08:51:10.094Z,101218.91
2023-05-03T08:53:37.641Z,101224.75
2023-05-03T08:56:12.633Z,101224.59
2023-05-03T08:58:39.901Z,101224.75
2023-05-03T09:01:09.858Z,101225.50
2023-05-03T09:03:37.997Z,101225.69
2023-05-03T09:06:26.393Z,101219.00
2023-05-03T09:08:54.783Z,101224.22
2023-05-03T09:11:27.808Z,101221.16
2023-05-03T09:14:08.503Z,101234.78
2023-05-03T09:16:36.093Z,101236.47
2023-05-03T09:19:09.412Z,101232.31
2023-05-03T09:21:38.078Z,101237.81
2023-05-03T09:24:22.313Z,101226.69
2023-05-03T09:26:52.023Z,101234.31
2023-05-03T09:29:35.980Z,101230.13
2023-05-03T09:32:06.541Z,101243.84
2023-05-03T09:34:35.623Z,101234.25
2023-05-03T09:37:02.769Z,101229.09
2023-05-03T09:39:30.091Z,101230.34
2023-05-03T09:41:57.240Z,101236.22
2023-05-03T09:44:44.695Z,101236.44
2023-05-03T09:47:12.533Z,101237.97
2023-05-03T09:49:39.972Z,101226.88
2023-05-03T09:52:08.346Z,101232.06
2023-05-03T09:54:36.226Z,101228.72
2023-05-03T09:57:08.549Z,101224.81
2023-05-03T09:59:37.757Z,101226.41
2023-05-03T10:02:07.757Z,101227.66
2023-05-03T10:04:51.470Z,101230.13
2023-05-03T10:07:22.074Z,101236.59
2023-05-03T10:09:49.384Z,101239.97
2023-05-03T10:12:18.034Z,101240.19
2023-05-03T10:14:49.986Z,101239.91
2023-05-03T10:17:46.983Z,101237.75
2023-05-03T10:20:24.362Z,101239.63
2023-05-03T10:23:07.626Z,101241.47
2023-05-03T10:25:37.668Z,101239.94
2023-05-03T10:28:09.831Z,101234.66
2023-05-03T10:30:39.965Z,101238.31
2023-05-03T10:33:12.979Z,101242.75
2023-05-03T10:35:55.058Z,101237.56
2023-05-03T10:38:28.141Z,101233.03
2023-05-03T10:40:56.831Z,101242.31
2023-05-03T10:43:32.260Z,101245.91
2023-05-03T10:46:01.715Z,101228.03
2023-05-03T10:48:30.312Z,101226.28
2023-05-03T10:50:59.310Z,101226.66
2023-05-03T10:53:35.453Z,101228.56
2023-05-03T10:56:06.669Z,101235.75
2023-05-03T10:58:43.968Z,101223.13
2023-05-03T11:01:17.715Z,101235.50
2023-05-03T11:04:01.091Z,101231.03
2023-05-03T11:06:35.711Z,101240.84
2023-05-03T11:09:06.802Z,101236.34
2023-05-03T11:11:36.590Z,101245.94
2023-05-03T11:14:04.361Z,101247.81
2023-05-03T11:16:32.021Z,101246.09
2023-05-03T11:19:00.556Z,101246.19
2023-05-03T11:21:27.911Z,101254.28
2023-05-03T11:23:55.168Z,101244.38
2023-05-03T11:26:26.276Z,101240.91
2023-05-03T11:28:54.574Z,101242.69
2023-05-03T11:31:22.815Z,101240.78
2023-05-03T11:33:51.208Z,101242.66
2023-05-03T11:36:18.382Z,101239.00
2023-05-03T11:38:46.076Z,101246.25
2023-05-03T11:41:19.593Z,101242.66
2023-05-03T11:43:57.507Z,101238.16
2023-05-03T11:46:33.060Z,101230.06
2023-05-03T11:49:02.204Z,101241.41
2023-05-03T11:51:29.552Z,101243.50
2023-05-03T11:53:57.190Z,101230.63
2023-05-03T11:56:24.660Z,101234.19
2023-05-03T11:58:59.765Z,101243.09
2023-05-03T12:01:29.140Z,101249.81
2023-05-03T12:04:02.559Z,101249.75
2023-05-03T12:06:35.358Z,101252.31
2023-05-03T12:09:05.437Z,101247.34
2023-05-03T12:11:44.206Z,101251.00
2023-05-03T12:14:12.286Z,101241.31
2023-05-03T12:16:52.770Z,101243.59
2023-05-03T12:19:39.266Z,101237.69
2023-05-03T12:22:26.092Z,101242.84
2023-05-03T12:24:54.126Z,101237.38
2023-05-03T12:27:23.560Z,101236.47
2023-05-03T12:29:51.904Z,101239.09
2023-05-03T12:32:21.377Z,101236.50
2023-05-03T12:34:51.901Z,101230.38
2023-05-03T12:37:22.056Z,101232.25
2023-05-03T12:40:01.497Z,101224.06
2023-05-03T12:42:37.058Z,101227.38
2023-05-03T12:45:05.312Z,101225.94
2023-05-03T12:47:36.172Z,101225.41
2023-05-03T12:50:06.216Z,101223.53
2023-05-03T12:52:38.171Z,101222.41
2023-05-03T12:55:11.341Z,101224.16
2023-05-03T12:57:39.255Z,101220.44
2023-05-03T13:00:21.157Z,101225.84
2023-05-03T13:05:33.813Z,101217.16
2023-05-03T13:08:09.196Z,101210.88
2023-05-03T13:10:39.152Z,101213.50
2023-05-03T13:13:07.156Z,101211.94
2023-05-03T13:15:38.010Z,101220.03
2023-05-03T13:18:07.413Z,101212.09
2023-05-03T13:20:37.093Z,101202.31
2023-05-03T13:23:04.817Z,101206.75
2023-05-03T13:25:32.162Z,101209.41
2023-05-03T13:28:01.937Z,101194.63
2023-05-03T13:30:29.295Z,101193.59
2023-05-03T13:32:56.477Z,101195.97
2023-05-03T13:35:23.545Z,101201.47
2023-05-03T13:37:51.101Z,101193.22
2023-05-03T13:40:18.905Z,101202.81
2023-05-03T13:42:46.048Z,101194.09
2023-05-03T13:45:15.141Z,101188.44
2023-05-03T13:48:04.965Z,101191.88
2023-05-03T13:50:32.059Z,101200.03
2023-05-03T13:52:59.218Z,101188.31
2023-05-03T13:55:26.902Z,101192.84
2023-05-03T13:57:54.142Z,101192.75
2023-05-03T14:00:21.419Z,101180.84
2023-05-03T14:02:48.808Z,101181.53
2023-05-03T14:05:16.627Z,101190.22
2023-05-03T14:07:43.796Z,101184.81
2023-05-03T14:10:11.891Z,101184.03
2023-05-03T14:12:39.111Z,101182.41
2023-05-03T14:15:07.738Z,101185.94
2023-05-03T14:17:34.957Z,101185.19
2023-05-03T14:20:02.697Z,101187.63
2023-05-03T14:22:30.055Z,101185.94
2023-05-03T14:24:57.292Z,101187.69
2023-05-03T14:27:24.461Z,101186.72
2023-05-03T14:29:52.038Z,101191.03
2023-05-03T14:32:24.497Z,101189.91
2023-05-03T14:34:51.733Z,101185.94
2023-05-03T14:37:18.840Z,101192.97
2023-05-03T14:39:46.082Z,101197.53
2023-05-03T14:42:13.228Z,101193.84
2023-05-03T14:44:40.347Z,101196.53
2023-05-03T14:47:08.397Z,101185.09
2023-05-03T14:49:41.143Z,101195.78
2023-05-03T14:52:09.007Z,101204.28
2023-05-03T14:54:37.517Z,101187.56
2023-05-03T14:57:05.125Z,101196.91
2023-05-03T14:59:33.396Z,101190.63
2023-05-03T15:02:01.699Z,101199.22
2023-05-03T15:04:29.391Z,101200.66
2023-05-03T15:07:04.260Z,101196.09
2023-05-03T15:09:31.913Z,101198.75
2023-05-03T15:11:59.741Z,101195.38
2023-05-03T15:14:26.779Z,101196.16
2023-05-03T15:16:53.894Z,101203.16
2023-05-03T15:19:21.673Z,101199.69
2023-05-03T15:21:50.947Z,101202.47
2023-05-03T15:24:18.867Z,101203.16
2023-05-03T15:26:47.082Z,101204.69
2023-05-03T15:29:15.362Z,101202.88
2023-05-03T15:31:42.973Z,101209.16
2023-05-03T15:34:12.291Z,101206.34
2023-05-03T15:36:40.661Z,101207.63
2023-05-03T15:39:09.489Z,101201.53
2023-05-03T15:41:36.522Z,101205.03
2023-05-03T15:44:05.501Z,101213.91
2023-05-03T15:46:34.578Z,101209.00
2023-05-03T15:49:01.873Z,101213.72
2023-05-03T15:51:29.430Z,101205.44
2023-05-03T15:53:56.571Z,101202.63
2023-05-03T15:56:23.787Z,101207.09
2023-05-03T15:58:51.023Z,101208.88
2023-05-03T16:01:18.811Z,101199.97
2023-05-03T16:03:46.325Z,101208.78
2023-05-03T16:06:16.823Z,101209.41
2023-05-03T16:08:44.320Z,101210.25
2023-05-03T16:11:12.968Z,101203.06
2023-05-03T16:13:40.051Z,101204.75
2023-05-03T16:16:07.295Z,101196.03
2023-05-03T16:18:34.409Z,101207.09
2023-05-03T16:21:02.636Z,101205.22
2023-05-03T16:23:29.955Z,101202.13
2023-05-03T16:25:57.190Z,101202.84
2023-05-03T16:28:24.423Z,101203.56
2023-05-03T16:30:51.807Z,101206.94
2023-05-03T16:33:19.577Z,101209.19
2023-05-03T16:35:46.637Z,101208.50
2023-05-03T16:38:13.699Z,101211.28
2023-05-03T16:40:42.517Z,101211.06
2023-05-03T16:43:10.258Z,101209.06
2023-05-03T16:45:37.622Z,101215.09
2023-05-03T16:48:06.806Z,101213.81
2023-05-03T16:50:37.095Z,101217.47
2023-05-03T16:53:04.247Z,101219.69
2023-05-03T16:55:31.426Z,101214.28
2023-05-03T16:57:58.453Z,101223.69
2023-05-03T17:00:25.901Z,101226.72
2023-05-03T17:02:53.049Z,101223.38
2023-05-03T17:05:20.426Z,101222.72
2023-05-03T17:07:47.500Z,101219.78
2023-05-03T17:10:14.768Z,101222.16
2023-05-03T17:12:41.931Z,101228.34
2023-05-03T17:15:10.249Z,101230.47
2023-05-03T17:17:37.328Z,101227.81
2023-05-03T17:20:05.320Z,101234.84
2023-05-03T17:22:32.876Z,101233.75
2023-05-03T17:24:59.996Z,101231.78
2023-05-03T17:27:27.145Z,101230.63
2023-05-03T17:29:57.522Z,101229.22
2023-05-03T17:32:24.796Z,101230.88
2023-05-03T17:34:51.986Z,101229.03
2023-05-03T17:37:19.018Z,101243.41
2023-05-03T17:39:46.368Z,101235.38
2023-05-03T17:42:13.410Z,101227.88
2023-05-03T17:44:40.960Z,101235.63
2023-05-03T17:47:09.503Z,101237.31
2023-05-03T17:49:36.626Z,101239.06
2023-05-03T17:52:05.002Z,101243.13
2023-05-03T17:54:32.311Z,101243.88
2023-05-03T17:56:59.511Z,101242.09
2023-05-03T17:59:26.540Z,101242.50
2023-05-03T18:01:53.686Z,101251.78
2023-05-03T18:04:20.900Z,101249.13
2023-05-03T18:06:48.038Z,101255.34
2023-05-03T18:09:16.497Z,101255.44
2023-05-03T18:11:45.123Z,101263.88
2023-05-03T18:14:12.485Z,101262.66
2023-05-03T18:16:39.974Z,101264.09
2023-05-03T18:19:07.344Z,101266.81
2023-05-03T18:21:35.642Z,101270.97
2023-05-03T18:24:03.845Z,101267.44
2023-05-03T18:26:30.957Z,101266.28
2023-05-03T18:28:59.378Z,101268.94
2023-05-03T18:31:27.341Z,101267.72
2023-05-03T18:33:54.522Z,101270.97
2023-05-03T18:36:23.565Z,101264.75
2023-05-03T18:38:53.274Z,101266.97
2023-05-03T18:41:20.953Z,101269.28
2023-05-03T18:43:47.987Z,101275.09
2023-05-03T18:46:19.708Z,101275.75
2023-05-03T18:48:47.895Z,101269.25
2023-05-03T18:51:15.123Z,101277.78
2023-05-03T18:53:43.524Z,101274.06
2023-05-03T18:56:10.907Z,101273.56
2023-05-03T18:58:38.257Z,101273.56
2023-05-03T19:01:06.037Z,101274.84
2023-05-03T19:03:33.595Z,101277.47
2023-05-03T19:06:07.331Z,101280.69
2023-05-03T19:08:35.767Z,101274.78
2023-05-03T19:11:14.510Z,101278.28
2023-05-03T19:13:44.826Z,101284.03
2023-05-03T19:16:12.513Z,101278.28
2023-05-03T19:18:44.326Z,101284.16
2023-05-03T19:21:17.753Z,101283.97
2023-05-03T19:23:45.353Z,101283.56
2023-05-03T19:26:12.457Z,101297.19
2023-05-03T19:28:40.436Z,101293.03
2023-05-03T19:31:07.797Z,101298.88
2023-05-03T19:33:34.907Z,101289.00
2023-05-03T19:36:06.597Z,101293.22
2023-05-03T19:38:36.469Z,101295.59
2023-05-03T19:41:09.664Z,101303.44
2023-05-03T19:43:36.791Z,101299.03
2023-05-03T19:46:04.631Z,101299.56
2023-05-03T19:48:32.399Z,101298.66
2023-05-03T19:51:00.461Z,101293.16
2023-05-03T19:53:28.513Z,101291.09
2023-05-03T19:56:01.017Z,101293.16
2023-05-03T19:58:29.001Z,101298.59
2023-05-03T20:00:58.980Z,101296.53
2023-05-03T20:03:26.974Z,101291.44
2023-05-03T20:05:54.215Z,101294.66
2023-05-03T20:08:21.345Z,101300.44
2023-05-03T20:10:49.869Z,101307.31
2023-05-03T20:13:17.272Z,101300.59
2023-05-03T20:15:44.480Z,101296.75
2023-05-03T20:18:11.539Z,101293.06
2023-05-03T20:20:39.124Z,101298.16
2023-05-03T20:23:06.286Z,101299.53
2023-05-03T20:25:33.827Z,101297.13
2023-05-03T20:28:01.013Z,101295.44
2023-05-03T20:30:29.769Z,101293.91
2023-05-03T20:32:56.883Z,101298.63
2023-05-03T20:35:24.042Z,101302.31
2023-05-03T20:37:51.212Z,101306.94
2023-05-03T20:40:18.278Z,101306.44
2023-05-03T20:42:45.354Z,101312.69
2023-05-03T20:45:12.745Z,101311.94
2023-05-03T20:47:39.830Z,101310.06
2023-05-03T20:50:08.904Z,101312.19
2023-05-03T20:52:36.386Z,101307.75
2023-05-03T20:55:03.562Z,101313.28
2023-05-03T20:57:31.587Z,101315.44
2023-05-03T21:00:00.431Z,101311.28
2023-05-03T21:02:27.568Z,101306.53
2023-05-03T21:04:54.639Z,101310.06
2023-05-03T21:07:21.737Z,101308.75
2023-05-03T21:09:48.713Z,101309.66
2023-05-03T21:12:15.807Z,101304.13
2023-05-03T21:14:42.869Z,101300.66
2023-05-03T21:17:12.229Z,101295.03
2023-05-03T21:19:39.942Z,101300.66
2023-05-03T21:22:11.603Z,101306.31
2023-05-03T21:24:38.848Z,101293.06
2023-05-03T21:27:05.869Z,101299.09
2023-05-03T21:29:33.118Z,101297.78
2023-05-03T21:32:00.380Z,101300.50
2023-05-03T21:34:27.799Z,101299.59
2023-05-03T21:36:54.854Z,101294.22
2023-05-03T21:39:21.986Z,101297.94
2023-05-03T21:41:49.024Z,101296.81
2023-05-03T21:44:16.093Z,101289.25
2023-05-03T21:46:43.267Z,101287.69
2023-05-03T21:49:10.487Z,101287.22
2023-05-03T21:51:37.678Z,101288.59
2023-05-03T21:54:04.837Z,101288.19
2023-05-03T21:56:31.958Z,101285.72
2023-05-03T21:58:59.012Z,101282.66
2023-05-03T22:01:26.147Z,101285.38
2023-05-03T22:03:53.502Z,101293.75
2023-05-03T22:06:21.790Z,101295.50
2023-05-03T22:08:49.349Z,101289.31
2023-05-03T22:11:16.442Z,101293.38
2023-05-03T22:13:58.750Z,101296.88
2023-05-03T22:16:26.551Z,101295.06
2023-05-03T22:18:53.641Z,101290.44
2023-05-03T22:21:20.893Z,101292.44
2023-05-03T22:23:48.197Z,101293.75
2023-05-03T22:26:15.253Z,101293.00
2023-05-03T22:28:42.608Z,101292.59
2023-05-03T22:31:09.692Z,101287.16
2023-05-03T22:33:36.815Z,101295.22
2023-05-03T22:36:04.502Z,101297.88
2023-05-03T22:38:31.873Z,101297.63
2023-05-03T22:40:58.941Z,101302.63
2023-05-03T22:43:26.058Z,101293.47
2023-05-03T22:45:53.107Z,101297.94
2023-05-03T22:48:20.237Z,101301.56
2023-05-03T22:50:47.267Z,101302.63
2023-05-03T22:53:14.358Z,101300.75
2023-05-03T22:55:41.542Z,101295.28
2023-05-03T22:58:08.649Z,101296.34
2023-05-03T23:00:35.677Z,101306.28
2023-05-03T23:03:02.829Z,101302.84
2023-05-03T23:05:30.467Z,101301.09
2023-05-03T23:07:57.481Z,101298.47
2023-05-03T23:10:24.865Z,101296.25
2023-05-03T23:12:51.968Z,101295.97
2023-05-03T23:15:19.195Z,101299.69
2023-05-03T23:17:46.569Z,101299.19
2023-05-03T23:20:13.953Z,101296.78
2023-05-03T23:22:42.295Z,101295.06
2023-05-03T23:25:09.889Z,101299.06
2023-05-03T23:27:37.425Z,101300.78
2023-05-03T23:30:05.887Z,101295.22
2023-05-03T23:32:33.490Z,101300.22
2023-05-03T23:35:01.241Z,101297.44
2023-05-03T23:37:28.691Z,101295.72
2023-05-03T23:39:55.865Z,101295.34
2023-05-03T23:42:24.356Z,101291.81
2023-05-03T23:44:55.264Z,101295.19
2023-05-03T23:47:23.599Z,101289.00
2023-05-03T23:49:51.111Z,101285.94
2023-05-03T23:52:19.873Z,101284.13
2023-05-03T23:54:47.035Z,101289.59
2023-05-03T23:57:14.170Z,101283.06
2023-05-03T23:59:41.194Z,101287.56
